Terminal Aerodrome Forecast
Issued by NWS

Home | Current Version | Previous Version | Text Only | Print | Product List | Glossary On
Versions: 1 2 3 4 5 6 7 8 9 10 11 12 13 14
000
FTUS43 KMQT 061740
TAFIWD
TAF
KIWD 061740Z 0618/0718 14009KT P6SM BKN060
     FM062300 15010KT P6SM BKN030
     FM070300 15010KT P6SM SCT030 BKN120
     FM071700 19015G21KT P6SM BKN080
      AMD LTD TO CLD VIS AND WIND=

USA.gov is the U.S. government's official web portal to all federal, state and local government web resources and services.